createdAt,value
2019-03-04T00:01:46.237Z,70.30
2019-03-04T00:04:16.387Z,74.10
2019-03-04T00:06:46.517Z,69.47
2019-03-04T00:09:16.727Z,66.55
2019-03-04T00:11:46.874Z,69.72
2019-03-04T00:14:17.085Z,67.35
2019-03-04T00:16:47.175Z,68.57
2019-03-04T00:19:17.257Z,66.40
2019-03-04T00:21:47.831Z,66.40
2019-03-04T00:24:17.918Z,68.85
2019-03-04T00:26:48.016Z,71.75
2019-03-04T00:29:18.509Z,68.57
2019-03-04T00:31:48.691Z,65.05
2019-03-04T00:34:19.251Z,70.08
2019-03-04T00:36:49.399Z,64.55
2019-03-04T00:39:19.506Z,70.57
2019-03-04T00:41:49.707Z,68.52
2019-03-04T00:44:19.935Z,73.20
2019-03-04T00:46:50.125Z,73.85
2019-03-04T00:49:20.145Z,70.78
2019-03-04T00:51:50.361Z,74.90
2019-03-04T00:54:20.803Z,69.03
2019-03-04T00:56:50.937Z,77.70
2019-03-04T00:59:21.115Z,74.10
2019-03-04T01:01:51.684Z,74.85
2019-03-04T01:04:21.921Z,76.67
2019-03-04T01:06:52.100Z,76.05
2019-03-04T01:09:22.163Z,71.95
2019-03-04T01:11:52.571Z,70.05
2019-03-04T01:14:22.806Z,69.00
2019-03-04T01:16:53.320Z,70.32
2019-03-04T01:19:23.540Z,68.05
2019-03-04T01:21:53.619Z,80.00
2019-03-04T01:24:23.642Z,68.50
2019-03-04T01:26:53.799Z,78.25
2019-03-04T01:29:24.162Z,70.32
2019-03-04T01:31:54.751Z,74.85
2019-03-04T01:34:24.836Z,71.07
2019-03-04T01:36:55.015Z,65.35
2019-03-04T01:39:25.222Z,66.87
2019-03-04T01:41:55.314Z,71.33
2019-03-04T01:44:25.544Z,73.17
2019-03-04T01:46:55.710Z,74.58
2019-03-04T01:49:26.105Z,65.00
2019-03-04T01:51:56.134Z,70.65
2019-03-04T01:54:28.109Z,66.05
2019-03-04T01:56:57.995Z,73.07
2019-03-04T01:59:28.095Z,81.57
2019-03-04T02:01:58.240Z,73.67
2019-03-04T02:04:28.684Z,79.37
2019-03-04T02:06:59.297Z,70.40
2019-03-04T02:09:29.325Z,76.90
2019-03-04T02:11:59.756Z,72.08
2019-03-04T02:14:29.758Z,68.85
2019-03-04T02:17:00.177Z,72.42
2019-03-04T02:19:30.678Z,74.10
2019-03-04T02:22:00.810Z,69.45
2019-03-04T02:24:30.949Z,66.75
2019-03-04T02:27:01.399Z,69.17
2019-03-04T02:29:31.610Z,70.75
2019-03-04T02:32:01.797Z,70.65
2019-03-04T02:34:31.825Z,71.72
2019-03-04T02:37:01.907Z,73.35
2019-03-04T02:39:31.943Z,75.15
2019-03-04T02:42:02.403Z,74.55
2019-03-04T02:44:32.558Z,71.20
2019-03-04T02:47:03.056Z,70.80
2019-03-04T02:49:33.214Z,70.87
2019-03-04T02:52:03.513Z,70.37
2019-03-04T02:54:33.718Z,72.85
2019-03-04T02:57:04.169Z,68.80
2019-03-04T02:59:34.242Z,72.08
2019-03-04T03:02:06.428Z,79.05
2019-03-04T03:04:36.762Z,73.45
2019-03-04T03:07:07.017Z,75.97
2019-03-04T03:09:37.096Z,72.32
2019-03-04T03:12:07.250Z,75.95
2019-03-04T03:14:37.332Z,74.00
2019-03-04T03:17:07.471Z,72.05
2019-03-04T03:19:37.637Z,71.15
2019-03-04T03:22:07.784Z,69.80
2019-03-04T03:24:38.333Z,74.22
2019-03-04T03:27:08.851Z,69.67
2019-03-04T03:29:38.873Z,66.12
2019-03-04T03:32:09.417Z,76.70
2019-03-04T03:34:39.826Z,75.42
2019-03-04T03:37:09.985Z,76.10
2019-03-04T03:39:40.190Z,79.72
2019-03-04T03:42:10.328Z,79.25
2019-03-04T03:44:40.497Z,79.05
2019-03-04T03:47:10.622Z,81.35
2019-03-04T03:49:40.866Z,84.45
2019-03-04T03:52:10.954Z,82.15
2019-03-04T03:54:40.957Z,79.05
2019-03-04T03:57:11.188Z,84.42
2019-03-04T03:59:41.654Z,87.57
2019-03-04T04:02:11.733Z,90.00
2019-03-04T04:04:41.829Z,85.97
2019-03-04T04:07:11.844Z,85.85
2019-03-04T04:09:42.339Z,83.52
2019-03-04T04:12:12.514Z,89.13
2019-03-04T04:14:42.672Z,82.00
2019-03-04T04:17:12.948Z,77.78
2019-03-04T04:19:43.182Z,94.60
2019-03-04T04:22:13.417Z,80.80
2019-03-04T04:24:43.591Z,87.47
2019-03-04T04:27:14.395Z,87.37
2019-03-04T04:29:44.860Z,81.55
2019-03-04T04:32:15.005Z,86.97
2019-03-04T04:34:45.090Z,89.77
2019-03-04T04:37:15.154Z,90.30
2019-03-04T04:39:45.382Z,84.85
2019-03-04T04:42:15.461Z,85.92
2019-03-04T04:44:45.542Z,90.67
2019-03-04T04:47:15.751Z,85.62
2019-03-04T04:49:46.295Z,85.77
2019-03-04T04:52:16.382Z,80.62
2019-03-04T04:54:46.946Z,79.90
2019-03-04T04:57:17.104Z,87.62
2019-03-04T04:59:47.346Z,89.72
2019-03-04T05:02:17.901Z,79.40
2019-03-04T05:04:48.005Z,78.70
2019-03-04T05:07:18.018Z,83.22
2019-03-04T05:09:48.571Z,77.80
2019-03-04T05:12:18.779Z,71.65
2019-03-04T05:14:49.003Z,75.17
2019-03-04T05:17:19.236Z,76.65
2019-03-04T05:19:49.401Z,78.80
2019-03-04T05:22:19.889Z,73.40
2019-03-04T05:24:50.104Z,75.42
2019-03-04T05:27:20.158Z,74.47
2019-03-04T05:29:50.170Z,83.12
2019-03-04T05:32:20.474Z,79.37
2019-03-04T05:34:50.642Z,78.72
2019-03-04T05:37:21.215Z,82.42
2019-03-04T05:39:51.358Z,76.33
2019-03-04T05:42:21.458Z,82.42
2019-03-04T05:44:51.478Z,85.87
2019-03-04T05:47:21.692Z,90.05
2019-03-04T05:49:51.777Z,85.10
2019-03-04T05:52:21.941Z,87.47
2019-03-04T05:54:52.451Z,85.55
2019-03-04T05:57:22.686Z,89.25
2019-03-04T05:59:52.781Z,82.92
2019-03-04T06:02:23.240Z,83.35
2019-03-04T06:04:53.884Z,83.82
2019-03-04T06:07:25.620Z,89.13
2019-03-04T06:09:55.777Z,88.47
2019-03-04T06:12:25.879Z,98.82
2019-03-04T06:14:56.106Z,87.55
2019-03-04T06:17:26.711Z,90.83
2019-03-04T06:19:57.188Z,89.87
2019-03-04T06:22:27.687Z,93.80
2019-03-04T06:24:58.102Z,97.60
2019-03-04T06:27:28.328Z,103.02
2019-03-04T06:29:58.420Z,98.30
2019-03-04T06:32:28.479Z,94.67
2019-03-04T06:34:58.982Z,109.32
2019-03-04T06:37:29.624Z,99.83
2019-03-04T06:40:00.183Z,100.00
2019-03-04T06:42:30.279Z,96.78
2019-03-04T06:45:00.510Z,100.27
2019-03-04T06:47:30.766Z,98.70
2019-03-04T06:50:00.967Z,98.10
2019-03-04T06:52:31.230Z,98.67
2019-03-04T06:55:04.661Z,100.42
2019-03-04T06:57:34.722Z,92.27
2019-03-04T07:00:24.568Z,106.35
2019-03-04T07:02:55.126Z,96.45
2019-03-04T07:05:48.812Z,112.20
2019-03-04T07:08:40.781Z,101.97
2019-03-04T07:11:10.938Z,103.25
2019-03-04T07:13:41.163Z,105.00
2019-03-04T07:16:11.330Z,102.50
2019-03-04T07:18:41.509Z,98.37
2019-03-04T07:21:13.259Z,95.03
2019-03-04T07:23:43.337Z,93.90
2019-03-04T07:26:13.996Z,96.05
2019-03-04T07:28:44.097Z,104.43
2019-03-04T07:31:14.291Z,102.58
2019-03-04T07:33:44.451Z,91.12
2019-03-04T07:36:14.825Z,90.17
2019-03-04T07:38:48.403Z,91.72
2019-03-04T07:41:18.453Z,93.27
2019-03-04T07:43:48.677Z,92.40
2019-03-04T07:46:18.822Z,96.00
2019-03-04T07:48:49.097Z,104.80
2019-03-04T07:51:19.638Z,105.85
2019-03-04T07:53:50.988Z,114.00
2019-03-04T07:56:21.629Z,143.02
2019-03-04T07:58:51.740Z,107.80
2019-03-04T08:01:22.307Z,114.50
2019-03-04T08:03:52.835Z,128.60
2019-03-04T08:06:23.067Z,138.75
2019-03-04T08:09:14.105Z,146.45
2019-03-04T08:12:03.561Z,139.72
2019-03-04T08:14:33.717Z,141.05
2019-03-04T08:17:03.883Z,146.62
2019-03-04T08:19:34.043Z,139.15
2019-03-04T08:22:05.385Z,150.18
2019-03-04T08:24:35.974Z,153.35
2019-03-04T08:27:06.984Z,141.57
2019-03-04T08:29:37.216Z,148.87
2019-03-04T08:32:07.380Z,151.40
2019-03-04T08:34:37.518Z,149.55
2019-03-04T08:37:08.027Z,148.17
2019-03-04T08:39:38.549Z,163.40
2019-03-04T08:42:08.977Z,163.80
2019-03-04T08:44:38.993Z,170.90
2019-03-04T08:47:09.156Z,170.97
2019-03-04T08:49:40.399Z,170.72
2019-03-04T08:52:11.825Z,170.07
2019-03-04T08:54:42.031Z,165.45
2019-03-04T08:57:12.197Z,165.25
2019-03-04T08:59:42.351Z,171.13
2019-03-04T09:02:30.718Z,164.70
2019-03-04T09:05:18.555Z,167.62
2019-03-04T09:07:48.729Z,166.05
2019-03-04T09:10:33.211Z,165.95
2019-03-04T09:13:03.372Z,148.68
2019-03-04T09:15:33.709Z,159.55
2019-03-04T09:18:03.950Z,158.85
2019-03-04T09:20:34.539Z,154.27
2019-03-04T09:23:04.792Z,151.80
2019-03-04T09:25:41.268Z,142.20
2019-03-04T09:28:11.425Z,154.50
2019-03-04T09:30:41.674Z,150.95
2019-03-04T09:33:11.899Z,157.37
2019-03-04T09:35:42.057Z,162.57
2019-03-04T09:38:12.531Z,142.98
2019-03-04T09:40:42.640Z,140.52
2019-03-04T09:43:12.704Z,154.23
2019-03-04T09:45:42.960Z,145.17
2019-03-04T09:48:13.194Z,152.07
2019-03-04T09:50:43.361Z,150.80
2019-03-04T09:53:13.570Z,151.02
2019-03-04T09:55:44.203Z,156.87
2019-03-04T09:58:14.745Z,147.57
2019-03-04T10:00:50.686Z,141.03
2019-03-04T10:03:41.871Z,160.95
2019-03-04T10:06:43.984Z,149.77
2019-03-04T10:09:45.918Z,157.78
2019-03-04T10:12:38.517Z,148.13
2019-03-04T10:15:22.919Z,151.50
2019-03-04T10:18:13.801Z,152.30
2019-03-04T10:21:05.356Z,148.15
2019-03-04T10:23:56.630Z,152.10
2019-03-04T10:26:59.512Z,154.47
2019-03-04T10:29:53.584Z,151.50
2019-03-04T10:32:43.273Z,150.07
2019-03-04T10:35:19.507Z,166.92
2019-03-04T10:38:12.066Z,158.45
2019-03-04T10:40:57.749Z,157.30
2019-03-04T10:43:44.217Z,159.20
2019-03-04T10:46:26.315Z,149.80
2019-03-04T10:48:57.861Z,158.42
2019-03-04T10:51:28.125Z,155.20
2019-03-04T10:53:58.716Z,159.63
2019-03-04T10:56:28.939Z,146.57
2019-03-04T10:58:59.182Z,155.90
2019-03-04T11:01:30.643Z,145.53
2019-03-04T11:04:01.050Z,152.82
2019-03-04T11:06:31.580Z,147.65
2019-03-04T11:09:02.150Z,147.80
2019-03-04T11:11:34.159Z,137.30
2019-03-04T11:14:04.505Z,144.53
2019-03-04T11:16:34.670Z,146.20
2019-03-04T11:19:05.543Z,145.17
2019-03-04T11:21:35.726Z,153.68
2019-03-04T11:24:06.619Z,152.10
2019-03-04T11:26:36.808Z,139.18
2019-03-04T11:29:08.715Z,147.98
2019-03-04T11:31:38.924Z,145.32
2019-03-04T11:34:10.162Z,143.95
2019-03-04T11:36:40.515Z,138.52
2019-03-04T11:39:21.025Z,144.45
2019-03-04T11:41:51.319Z,147.00
2019-03-04T11:44:22.676Z,146.20
2019-03-04T11:46:52.815Z,149.07
2019-03-04T11:49:22.901Z,140.80
2019-03-04T11:51:53.049Z,145.02
2019-03-04T11:54:23.213Z,147.35
2019-03-04T11:56:53.628Z,150.87
2019-03-04T11:59:24.744Z,146.85
2019-03-04T12:01:55.026Z,142.93
2019-03-04T12:04:25.519Z,153.55
2019-03-04T12:06:55.591Z,138.15
2019-03-04T12:09:26.171Z,141.82
2019-03-04T12:11:56.301Z,145.25
2019-03-04T12:14:26.863Z,144.93
2019-03-04T12:16:57.355Z,149.42
2019-03-04T12:19:28.842Z,141.47
2019-03-04T12:22:00.633Z,142.82
2019-03-04T12:24:30.801Z,150.60
2019-03-04T12:27:00.982Z,133.35
2019-03-04T12:29:31.260Z,145.25
2019-03-04T12:32:04.044Z,139.28
2019-03-04T12:34:34.303Z,150.30
2019-03-04T12:37:04.761Z,139.85
2019-03-04T12:39:34.918Z,144.72
2019-03-04T12:42:05.101Z,144.57
2019-03-04T12:44:35.166Z,145.92
2019-03-04T12:47:06.478Z,135.07
2019-03-04T12:49:36.884Z,143.25
2019-03-04T12:52:07.416Z,141.03
2019-03-04T12:54:37.794Z,142.95
2019-03-04T12:57:07.897Z,146.90
2019-03-04T12:59:38.399Z,146.80
2019-03-04T13:02:08.847Z,158.15
2019-03-04T13:04:39.013Z,144.82
2019-03-04T13:07:09.324Z,147.53
2019-03-04T13:09:39.484Z,155.00
2019-03-04T13:12:10.005Z,145.00
2019-03-04T13:14:40.138Z,144.30
2019-03-04T13:17:10.325Z,136.80
2019-03-04T13:19:40.881Z,145.92
2019-03-04T13:22:11.097Z,146.82
2019-03-04T13:24:41.530Z,150.42
2019-03-04T13:27:11.670Z,149.93
2019-03-04T13:29:42.278Z,152.05
2019-03-04T13:32:12.922Z,150.00
2019-03-04T13:34:43.089Z,159.15
2019-03-04T13:37:13.163Z,141.92
2019-03-04T13:39:43.575Z,146.85
2019-03-04T13:42:14.207Z,148.35
2019-03-04T13:44:44.751Z,143.52
2019-03-04T13:47:15.197Z,145.75
2019-03-04T13:49:45.219Z,144.82
2019-03-04T13:52:15.370Z,145.45
2019-03-04T13:54:45.932Z,143.32
2019-03-04T13:57:16.386Z,142.07
2019-03-04T13:59:46.420Z,154.27
2019-03-04T14:02:16.507Z,154.32
2019-03-04T14:04:46.605Z,126.67
2019-03-04T14:07:17.143Z,124.18
2019-03-04T14:09:47.507Z,125.47
2019-03-04T14:12:18.098Z,124.75
2019-03-04T14:14:48.247Z,128.42
2019-03-04T14:17:18.758Z,130.72
2019-03-04T14:19:49.024Z,124.30
2019-03-04T14:22:19.311Z,127.38
2019-03-04T14:24:49.452Z,131.25
2019-03-04T14:27:19.588Z,132.18
2019-03-04T14:29:49.739Z,132.12
2019-03-04T14:32:20.288Z,134.25
2019-03-04T14:34:50.448Z,126.33
2019-03-04T14:37:21.894Z,126.60
2019-03-04T14:39:52.178Z,119.53
2019-03-04T14:42:22.320Z,146.35
2019-03-04T14:44:53.465Z,146.35
2019-03-04T14:47:23.701Z,143.13
2019-03-04T14:49:54.190Z,151.72
2019-03-04T14:52:24.346Z,133.22
2019-03-04T14:54:54.572Z,139.18
2019-03-04T14:57:24.731Z,132.70
2019-03-04T14:59:54.878Z,144.72
2019-03-04T15:02:25.404Z,146.25
2019-03-04T15:04:55.475Z,139.00
2019-03-04T15:07:25.666Z,133.85
2019-03-04T15:09:55.826Z,141.53
2019-03-04T15:12:25.965Z,142.15
2019-03-04T15:14:56.466Z,151.22
2019-03-04T15:17:28.959Z,108.65
2019-03-04T15:20:08.583Z,130.70
2019-03-04T15:22:34.903Z,142.13
2019-03-04T15:25:02.894Z,147.60
2019-03-04T15:27:33.006Z,126.80
2019-03-04T15:30:03.521Z,120.55
2019-03-04T15:32:35.446Z,119.97
2019-03-04T15:35:08.262Z,122.15
2019-03-04T15:37:39.488Z,118.05
2019-03-04T15:40:11.914Z,98.35
2019-03-04T15:42:41.967Z,94.07
2019-03-04T15:45:13.999Z,100.12
2019-03-04T15:47:44.290Z,99.05
2019-03-04T15:50:15.313Z,107.95
2019-03-04T15:52:45.490Z,87.55
2019-03-04T15:55:15.699Z,94.22
2019-03-04T15:57:45.868Z,92.80
2019-03-04T16:00:17.513Z,104.05
2019-03-04T16:02:48.815Z,102.67
2019-03-04T16:05:19.227Z,95.10
2019-03-04T16:07:49.816Z,100.15
2019-03-04T16:10:29.479Z,82.97
2019-03-04T16:12:59.978Z,75.10
2019-03-04T16:15:30.516Z,70.70
2019-03-04T16:18:00.695Z,69.37
2019-03-04T16:20:30.975Z,63.17
2019-03-04T16:23:01.088Z,78.92
2019-03-04T16:25:31.225Z,76.72
2019-03-04T16:28:14.567Z,74.53
2019-03-04T16:30:48.037Z,78.15
2019-03-04T16:33:18.515Z,73.83
2019-03-04T16:35:48.664Z,80.92
2019-03-04T16:38:19.020Z,74.30
2019-03-04T16:40:50.442Z,73.70
2019-03-04T16:43:20.977Z,69.30
2019-03-04T16:45:51.209Z,79.42
2019-03-04T16:48:21.537Z,65.52
2019-03-04T16:50:51.970Z,59.10
2019-03-04T16:53:27.579Z,62.45
2019-03-04T16:55:57.838Z,112.30
2019-03-04T16:58:27.922Z,143.20
2019-03-04T17:00:58.726Z,134.45
2019-03-04T17:03:29.070Z,148.28
2019-03-04T17:05:59.232Z,140.85
2019-03-04T17:08:29.307Z,145.40
2019-03-04T17:11:00.076Z,148.72
2019-03-04T17:13:30.299Z,139.80
2019-03-04T17:16:00.684Z,121.10
2019-03-04T17:18:30.786Z,126.47
2019-03-04T17:21:01.256Z,126.07
2019-03-04T17:23:31.903Z,106.15
2019-03-04T17:26:02.111Z,112.60
2019-03-04T17:28:32.654Z,109.32
2019-03-04T17:31:02.925Z,149.65
2019-03-04T17:33:34.526Z,150.78
2019-03-04T17:36:04.840Z,136.55
2019-03-04T17:38:35.005Z,127.05
2019-03-04T17:41:05.632Z,120.00
2019-03-04T17:43:36.075Z,116.30
2019-03-04T17:46:07.498Z,118.28
2019-03-04T17:48:38.982Z,109.97
2019-03-04T17:51:09.126Z,97.35
2019-03-04T17:53:39.278Z,105.95
2019-03-04T17:56:09.950Z,103.30
2019-03-04T17:58:40.644Z,101.35
2019-03-04T18:01:11.025Z,86.85
2019-03-04T18:03:42.633Z,85.95
2019-03-04T18:06:13.361Z,86.47
2019-03-04T18:08:43.474Z,83.92
2019-03-04T18:11:14.416Z,87.40
2019-03-04T18:13:45.040Z,89.13
2019-03-04T18:16:15.930Z,80.10
2019-03-04T18:18:46.092Z,76.97
2019-03-04T18:21:16.238Z,82.97
2019-03-04T18:23:46.340Z,76.45
2019-03-04T18:26:20.653Z,80.12
2019-03-04T18:29:08.972Z,74.40
2019-03-04T18:31:54.432Z,64.70
2019-03-04T18:35:02.605Z,67.08
2019-03-04T18:38:04.294Z,73.67
2019-03-04T18:40:38.455Z,73.62
2019-03-04T18:43:20.480Z,63.65
2019-03-04T18:46:13.087Z,72.47
2019-03-04T18:48:57.205Z,68.02
2019-03-04T18:51:28.430Z,67.42
2019-03-04T18:54:01.149Z,70.05
2019-03-04T18:56:31.469Z,70.03
2019-03-04T18:59:02.319Z,74.85
2019-03-04T19:01:33.446Z,75.50
2019-03-04T19:04:04.091Z,68.05
2019-03-04T19:06:34.731Z,73.62
2019-03-04T19:09:06.482Z,76.10
2019-03-04T19:11:37.887Z,75.87
2019-03-04T19:14:08.509Z,66.57
2019-03-04T19:16:38.844Z,72.92
2019-03-04T19:19:09.074Z,70.03
2019-03-04T19:21:39.272Z,71.28
2019-03-04T19:24:09.799Z,60.67
2019-03-04T19:26:39.960Z,66.55
2019-03-04T19:29:10.883Z,69.10
2019-03-04T19:31:41.283Z,69.17
2019-03-04T19:34:11.418Z,67.10
2019-03-04T19:36:41.601Z,59.73
2019-03-04T19:39:11.838Z,62.65
2019-03-04T19:41:42.146Z,73.57
2019-03-04T19:44:13.353Z,71.22
2019-03-04T19:46:43.541Z,65.40
2019-03-04T19:49:13.758Z,63.87
2019-03-04T19:51:43.997Z,65.50
2019-03-04T19:54:15.321Z,65.95
2019-03-04T19:56:45.526Z,75.70
2019-03-04T19:59:15.621Z,64.30
2019-03-04T20:01:45.764Z,67.35
2019-03-04T20:04:16.318Z,68.35
2019-03-04T20:06:46.607Z,67.85
2019-03-04T20:09:16.976Z,67.17
2019-03-04T20:11:47.205Z,59.98
2019-03-04T20:14:17.813Z,56.45
2019-03-04T20:16:48.247Z,58.05
2019-03-04T20:19:18.816Z,56.28
2019-03-04T20:21:49.222Z,55.88
2019-03-04T20:24:19.484Z,55.80
2019-03-04T20:26:49.804Z,45.83
2019-03-04T20:29:20.260Z,49.60
2019-03-04T20:31:50.928Z,54.15
2019-03-04T20:34:22.059Z,47.88
2019-03-04T20:36:53.308Z,46.20
2019-03-04T20:39:23.758Z,39.53
2019-03-04T20:41:53.979Z,37.53
2019-03-04T20:44:24.616Z,34.20
2019-03-04T20:46:56.033Z,35.50
2019-03-04T20:49:26.609Z,35.33
2019-03-04T20:51:56.826Z,36.90
2019-03-04T20:54:27.022Z,44.73
2019-03-04T20:56:57.667Z,36.50
2019-03-04T20:59:27.735Z,34.15
2019-03-04T21:01:58.292Z,31.77
2019-03-04T21:04:28.640Z,36.40
2019-03-04T21:06:58.849Z,33.05
2019-03-04T21:09:29.653Z,37.63
2019-03-04T21:11:59.962Z,32.90
2019-03-04T21:14:30.290Z,33.42
2019-03-04T21:17:00.465Z,33.10
2019-03-04T21:19:31.178Z,32.93
2019-03-04T21:22:01.509Z,32.17
2019-03-04T21:24:32.742Z,32.78
2019-03-04T21:27:03.487Z,32.05
2019-03-04T21:29:36.981Z,29.72
2019-03-04T21:35:07.975Z,36.33
2019-03-04T21:37:40.373Z,34.38
2019-03-04T21:40:16.396Z,31.02
2019-03-04T21:42:58.433Z,30.37
2019-03-04T21:45:40.881Z,31.30
2019-03-04T21:48:19.396Z,36.15
2019-03-04T21:50:55.454Z,35.40
2019-03-04T21:53:37.044Z,35.03
2019-03-04T21:56:12.883Z,29.15
2019-03-04T21:58:43.159Z,31.17
2019-03-04T22:01:31.908Z,34.23
2019-03-04T22:04:02.712Z,36.75
2019-03-04T22:06:32.921Z,37.67
2019-03-04T22:09:04.957Z,36.93
2019-03-04T22:14:05.842Z,35.88
2019-03-04T22:16:36.002Z,39.25
2019-03-04T22:19:06.617Z,43.80
2019-03-04T22:21:36.824Z,37.13
2019-03-04T22:24:06.982Z,42.60
2019-03-04T22:26:37.136Z,42.48
2019-03-04T22:29:07.354Z,40.80
2019-03-04T22:31:37.506Z,39.98
2019-03-04T22:34:07.721Z,38.92
2019-03-04T22:36:37.965Z,44.13
2019-03-04T22:39:09.089Z,50.95
2019-03-04T22:41:40.140Z,43.87
2019-03-04T22:44:10.379Z,50.98
2019-03-04T22:46:40.631Z,56.25
2019-03-04T22:49:10.810Z,49.35
2019-03-04T22:51:41.329Z,46.68
2019-03-04T22:54:11.481Z,48.55
2019-03-04T22:56:41.685Z,48.78
2019-03-04T22:59:12.316Z,51.00
2019-03-04T23:01:46.479Z,42.43
2019-03-04T23:04:19.033Z,41.88
2019-03-04T23:06:58.447Z,36.98
2019-03-04T23:09:37.357Z,40.60
2019-03-04T23:12:28.657Z,40.38
2019-03-04T23:14:59.208Z,38.00
2019-03-04T23:17:29.722Z,38.00
2019-03-04T23:19:59.820Z,37.78
2019-03-04T23:22:30.040Z,35.65
2019-03-04T23:25:00.602Z,37.33
2019-03-04T23:27:31.142Z,40.30
2019-03-04T23:30:01.604Z,40.78
2019-03-04T23:32:31.905Z,43.63
2019-03-04T23:35:02.426Z,40.23
2019-03-04T23:37:32.630Z,40.78
2019-03-04T23:40:02.807Z,41.40
2019-03-04T23:42:33.289Z,46.50
2019-03-04T23:45:03.769Z,39.95
2019-03-04T23:47:36.843Z,40.92
2019-03-04T23:50:17.283Z,39.53
2019-03-04T23:52:47.785Z,38.73
2019-03-04T23:55:18.323Z,41.40
2019-03-04T23:57:48.841Z,39.35
